Time;durP1;ratioP1;P1;durP2;ratioP2;P2;SDS_P1;SDS_P2;PMS_P1;PMS_P2;Temp;Humidity;BMP_temperature;BMP_pressure;BME280_temperature;BME280_humidity;BME280_pressure;Samples;Min_cycle;Max_cycle;Signal;HPM_P1;HPM_P2
2023/02/12 00:00:33;;;;;;;28.40;10.60;;;;;;;5.21;100.00;102047.56;210248;1290;5383632;-86
2023/02/12 00:06:33;;;;;;;27.20;10.10;;;;;;;5.21;100.00;102056.13;213973;1287;139027;-86
2023/02/12 00:12:35;;;;;;;27.50;10.60;;;;;;;5.20;100.00;102060.02;214789;1286;138436;-86
2023/02/12 00:24:37;;;;;;;33.10;10.50;;;;;;;5.20;100.00;102074.50;214544;1287;138177;-85
2023/02/12 00:30:38;;;;;;;25.50;9.20;;;;;;;5.19;100.00;102085.27;214072;1288;138363;-86
2023/02/12 00:36:39;;;;;;;28.00;8.30;;;;;;;5.18;100.00;102089.88;213995;1288;138334;-86
2023/02/12 00:42:41;;;;;;;27.50;8.00;;;;;;;5.17;100.00;102094.27;214696;1288;138251;-86
2023/02/12 00:48:41;;;;;;;32.10;8.10;;;;;;;5.16;100.00;102104.38;214565;1286;138519;-88
2023/02/12 00:54:43;;;;;;;31.50;9.80;;;;;;;5.17;100.00;102109.00;215046;1290;138457;-86
2023/02/12 01:00:44;;;;;;;30.10;9.60;;;;;;;5.15;100.00;102121.26;214505;1287;138354;-85
2023/02/12 01:06:45;;;;;;;23.50;9.00;;;;;;;5.14;100.00;102129.14;214223;1286;138526;-86
2023/02/12 01:12:46;;;;;;;34.10;10.30;;;;;;;5.12;100.00;102148.27;214402;1289;138194;-86
2023/02/12 01:18:47;;;;;;;40.40;13.30;;;;;;;5.11;100.00;102155.51;213935;1285;139748;-86
2023/02/12 01:24:48;;;;;;;25.20;10.30;;;;;;;5.09;100.00;102158.31;214391;1289;138473;-86
2023/02/12 01:30:50;;;;;;;28.10;10.90;;;;;;;5.07;100.00;102171.23;213826;1289;138544;-87
2023/02/12 01:42:52;;;;;;;29.00;8.20;;;;;;;5.01;100.00;102180.98;214337;1287;138421;-85
2023/02/12 01:48:53;;;;;;;22.00;7.10;;;;;;;5.00;100.00;102186.13;213972;1286;138477;-86
2023/02/12 01:54:55;;;;;;;23.80;8.10;;;;;;;5.00;100.00;102186.84;214568;1286;138510;-86
2023/02/12 02:01:02;;;;;;;23.80;7.70;;;;;;;4.98;100.00;102190.86;213903;1289;138308;-87
2023/02/12 02:07:03;;;;;;;32.70;11.50;;;;;;;4.98;100.00;102200.64;213824;1285;138720;-86
2023/02/12 02:25:12;;;;;;;;;;;;;;;;;;;;;
2023/02/12 02:31:32;;;;;;;17.70;5.80;;;;;;;4.86;100.00;102204.97;213839;1286;138087;-85
2023/02/12 02:37:34;;;;;;;19.60;6.50;;;;;;;4.84;100.00;102208.53;213953;1288;138775;-85
2023/02/12 02:43:35;;;;;;;28.40;6.30;;;;;;;4.81;100.00;102214.64;214540;1286;97914;-86
2023/02/12 02:49:39;;;;;;;22.80;6.70;;;;;;;4.81;100.00;102225.48;213835;1287;138447;-86
2023/02/12 02:55:43;;;;;;;18.50;5.20;;;;;;;4.80;100.00;102229.88;214095;1288;96631;-88
2023/02/12 03:01:50;;;;;;;19.60;6.20;;;;;;;4.80;100.00;102234.84;213576;1289;137998;-87
2023/02/12 03:07:59;;;;;;;20.40;5.90;;;;;;;4.75;100.00;102241.55;213616;1287;138477;-86
2023/02/12 03:20:08;;;;;;;28.20;6.80;;;;;;;4.70;100.00;102246.22;213856;1286;138232;-86
2023/02/12 03:44:46;;;;;;;18.70;5.60;;;;;;;4.60;100.00;102286.02;214268;1286;96731;-88
2023/02/12 03:50:53;;;;;;;20.80;5.00;;;;;;;4.57;100.00;102294.94;213908;1287;138279;-86
2023/02/12 03:56:52;;;;;;;;;;;;;;;;;;;;;
2023/02/12 04:02:55;;;;;;;18.90;7.00;;;;;;;4.49;100.00;102313.85;214446;1285;96643;-86
2023/02/12 04:15:22;;;;;;;18.40;6.20;;;;;;;4.45;100.00;102325.61;214561;1289;97931;-86
2023/02/12 04:21:37;;;;;;;20.80;7.10;;;;;;;4.45;100.00;102324.04;213984;1287;138314;-85
2023/02/12 04:33:46;;;;;;;23.00;6.70;;;;;;;4.42;100.00;102332.23;214508;1288;96615;-86
2023/02/12 04:39:55;;;;;;;14.80;5.50;;;;;;;4.39;100.00;102331.41;213945;1287;138330;-86
2023/02/12 04:45:57;;;;;;;18.10;5.40;;;;;;;4.39;100.00;102342.31;214599;1285;96623;-85
2023/02/12 04:57:59;;;;;;;20.60;7.00;;;;;;;4.37;100.00;102353.90;214116;1288;138881;-86
2023/02/12 05:04:00;;;;;;;22.10;6.20;;;;;;;4.34;100.00;102357.68;214454;1286;96597;-86
2023/02/12 05:10:01;;;;;;;20.90;5.90;;;;;;;4.33;100.00;102363.70;213821;1289;138380;-87
2023/02/12 05:22:04;;;;;;;18.40;5.50;;;;;;;4.31;100.00;102372.61;214397;1285;97552;-85
2023/02/12 05:28:05;;;;;;;15.30;4.50;;;;;;;4.27;100.00;102380.49;213798;1288;138740;-86
2023/02/12 05:40:08;;;;;;;20.50;6.70;;;;;;;4.26;100.00;102393.98;213714;1287;138154;-86
2023/02/12 05:46:09;;;;;;;17.40;5.80;;;;;;;4.25;100.00;102405.38;214390;1286;96624;-86
2023/02/12 05:52:10;;;;;;;15.60;5.00;;;;;;;4.26;100.00;102417.69;214642;1288;97910;-86
2023/02/12 05:58:04;;;;;;;16.70;6.00;;;;;;;4.22;100.00;102429.39;213929;1285;138680;-85
2023/02/12 06:04:06;;;;;;;23.00;6.10;;;;;;;4.19;100.00;102443.20;214635;1288;97075;-86
2023/02/12 06:09:53;;;;;;;19.30;6.50;;;;;;;4.17;100.00;102449.49;213817;1286;138435;-85
2023/02/12 06:15:53;;;;;;;14.90;5.30;;;;;;;4.16;100.00;102455.16;214447;1290;138853;-86
2023/02/12 06:21:55;;;;;;;18.50;5.10;;;;;;;4.15;100.00;102463.84;213997;1285;139157;-86
2023/02/12 06:27:55;;;;;;;22.60;6.10;;;;;;;4.16;100.00;102468.79;213832;1285;139131;-85
2023/02/12 06:33:54;;;;;;;18.60;5.60;;;;;;;4.19;100.00;102478.30;214530;1285;139220;-86
2023/02/12 06:39:55;;;;;;;35.20;12.30;;;;;;;4.15;100.00;102491.15;213831;1290;139366;-85
2023/02/12 06:45:56;;;;;;;38.80;13.30;;;;;;;4.08;100.00;102500.57;214734;1285;138464;-86
2023/02/12 06:51:57;;;;;;;32.00;12.90;;;;;;;3.99;100.00;102512.90;214354;1285;139835;-87
2023/02/12 06:57:58;;;;;;;30.40;11.10;;;;;;;3.94;100.00;102522.67;214447;1288;138640;-86
2023/02/12 07:03:59;;;;;;;32.60;13.10;;;;;;;3.86;100.00;102522.29;214290;1286;139079;-86
2023/02/12 07:10:00;;;;;;;36.70;14.20;;;;;;;3.90;100.00;102526.95;213882;1285;138249;-86
2023/02/12 07:16:01;;;;;;;32.50;12.80;;;;;;;3.89;100.00;102530.08;214674;1288;138161;-87
2023/02/12 07:22:02;;;;;;;29.30;10.90;;;;;;;3.88;100.00;102528.48;214582;1285;138371;-86
2023/02/12 07:28:03;;;;;;;29.60;11.20;;;;;;;3.89;100.00;102530.88;214161;1285;138998;-86
2023/02/12 07:34:01;;;;;;;37.40;13.50;;;;;;;3.90;100.00;102536.65;214632;1288;138812;-86
2023/02/12 07:40:02;;;;;;;38.30;14.00;;;;;;;3.92;100.00;102535.65;214269;1290;138867;-86
2023/02/12 07:46:03;;;;;;;30.60;12.80;;;;;;;3.93;100.00;102552.87;215015;1288;138420;-87
2023/02/12 07:52:05;;;;;;;31.10;12.50;;;;;;;3.98;100.00;102562.48;214730;1288;138617;-85
2023/02/12 07:58:06;;;;;;;44.50;14.60;;;;;;;4.03;100.00;102566.38;214057;1285;140126;-87
2023/02/12 08:10:11;;;;;;;32.60;14.20;;;;;;;4.12;100.00;102567.80;214250;1285;140876;-83
2023/02/12 08:16:12;;;;;;;34.00;11.80;;;;;;;4.14;100.00;102564.73;214917;1285;140429;-83
2023/02/12 08:22:13;;;;;;;30.70;12.30;;;;;;;4.19;100.00;102575.21;215061;1285;139108;-83
2023/02/12 08:28:15;;;;;;;29.10;11.80;;;;;;;4.24;100.00;102579.77;214380;1288;138456;-83
2023/02/12 08:34:16;;;;;;;33.50;13.50;;;;;;;4.28;100.00;102578.26;214991;1289;110799;-83
2023/02/12 08:40:17;;;;;;;27.50;12.10;;;;;;;4.34;100.00;102576.10;214312;1286;138317;-84
2023/02/12 08:46:19;;;;;;;50.40;13.20;;;;;;;4.38;100.00;102575.48;214940;1291;110523;-84
2023/02/12 08:52:20;;;;;;;29.80;12.20;;;;;;;4.42;100.00;102581.38;215383;1288;139958;-84
2023/02/12 09:04:16;;;;;;;31.90;12.30;;;;;;;4.49;100.00;102581.05;214616;1285;138858;-83
2023/02/12 09:10:06;;;;;;;30.90;13.10;;;;;;;4.49;100.00;102583.13;214103;1289;139988;-83
2023/02/12 09:16:06;;;;;;;35.80;16.20;;;;;;;4.50;100.00;102593.92;214551;1285;138403;-83
2023/02/12 09:21:59;;;;;;;37.00;15.00;;;;;;;4.47;100.00;102607.52;214949;1288;138443;-84
2023/02/12 09:28:00;;;;;;;29.60;12.10;;;;;;;4.48;100.00;102609.37;214207;1286;138919;-83
2023/02/12 09:33:56;;;;;;;33.80;14.00;;;;;;;4.49;100.00;102627.42;214850;1285;138383;-82
2023/02/12 09:39:57;;;;;;;33.20;15.90;;;;;;;4.51;100.00;102629.95;214399;1288;138501;-82
2023/02/12 09:45:57;;;;;;;30.50;13.90;;;;;;;4.52;100.00;102630.83;214759;1285;138386;-83
2023/02/12 09:51:50;;;;;;;;;;;;;;;;;;;;;
2023/02/12 09:57:52;;;;;;;39.60;15.10;;;;;;;4.53;100.00;102618.27;214089;1285;139687;-84
2023/02/12 10:03:53;;;;;;;32.80;14.70;;;;;;;4.58;100.00;102620.31;214723;1288;138505;-84
2023/02/12 10:09:52;;;;;;;40.50;18.70;;;;;;;4.66;100.00;102614.63;214503;1285;138819;-83
2023/02/12 10:16:06;;;;;;;45.30;20.90;;;;;;;4.74;100.00;102609.78;214886;1288;139256;-83
2023/02/12 10:22:25;;;;;;;57.30;26.40;;;;;;;4.83;100.00;102609.30;214665;1285;139754;-83
2023/02/12 10:28:32;;;;;;;43.20;19.80;;;;;;;4.91;100.00;102604.73;214447;1288;138331;-83
2023/02/12 10:34:36;;;;;;;37.90;18.10;;;;;;;5.03;100.00;102607.59;214964;1288;106558;-84
2023/02/12 10:40:38;;;;;;;;;;;;;;;;;;;;;
2023/02/12 10:46:40;;;;;;;35.50;14.80;;;;;;;5.34;100.00;102607.02;214535;1288;139122;-83
2023/02/12 10:52:49;;;;;;;27.00;10.70;;;;;;;5.48;100.00;102599.55;215091;1288;138538;-84
2023/02/12 10:58:58;;;;;;;28.80;12.50;;;;;;;5.58;100.00;102604.45;214917;1288;139251;-83
2023/02/12 11:05:00;;;;;;;34.20;13.20;;;;;;;5.64;100.00;102607.16;215221;1287;105171;-83
2023/02/12 11:11:01;;;;;;;26.20;12.10;;;;;;;5.66;100.00;102615.50;214404;1290;138352;-83
2023/02/12 11:17:08;;;;;;;27.80;10.40;;;;;;;5.68;100.00;102619.08;214266;1288;138219;-84
2023/02/12 11:23:12;;;;;;;24.70;9.60;;;;;;;5.69;100.00;102611.49;215490;1290;105147;-84
2023/02/12 11:29:16;;;;;;;24.30;10.60;;;;;;;5.69;100.00;102604.88;214507;1288;138664;-83
2023/02/12 11:41:18;;;;;;;23.10;10.20;;;;;;;5.69;100.00;102597.98;214596;1289;138917;-83
2023/02/12 11:47:45;;;;;;;25.00;8.60;;;;;;;5.72;100.00;102601.61;214989;1288;139870;-84
2023/02/12 11:59:31;;;;;;;41.40;12.60;;;;;;;5.79;100.00;102589.67;210435;1285;5390685;-83
2023/02/12 12:05:32;;;;;;;28.80;11.10;;;;;;;5.84;100.00;102584.77;214932;1288;108233;-83
2023/02/12 12:11:39;;;;;;;32.00;14.30;;;;;;;5.89;100.00;102579.39;214246;1289;140732;-83
2023/02/12 12:23:43;;;;;;;24.10;9.30;;;;;;;6.07;100.00;102580.08;214970;1289;108439;-83
2023/02/12 12:36:03;;;;;;;27.40;9.00;;;;;;;6.20;100.00;102563.98;214767;1290;97017;-84
2023/02/12 12:42:06;;;;;;;26.70;8.40;;;;;;;6.26;100.00;102564.43;214821;1286;219834;-83
2023/02/12 12:54:36;;;;;;;20.10;7.80;;;;;;;6.39;100.00;102557.55;214972;1291;96609;-84
2023/02/12 13:00:52;;;;;;;22.30;8.50;;;;;;;6.46;100.00;102546.02;214241;1285;138712;-83
2023/02/12 13:07:05;;;;;;;26.70;8.60;;;;;;;6.46;100.00;102547.15;213797;1285;138204;-83
2023/02/12 13:13:17;;;;;;;30.50;13.80;;;;;;;6.45;100.00;102537.23;214733;1285;97953;-84
2023/02/12 13:19:36;;;;;;;25.10;9.50;;;;;;;6.40;100.00;102540.85;213874;1285;138365;-84
2023/02/12 13:31:38;;;;;;;30.10;11.90;;;;;;;6.37;100.00;102525.20;214329;1285;138841;-83
2023/02/12 13:37:40;;;;;;;24.50;11.70;;;;;;;6.38;100.00;102518.95;214181;1285;139043;-83
2023/02/12 13:50:12;;;;;;;25.60;9.60;;;;;;;6.40;100.00;102530.90;213693;1290;138772;-82
2023/02/12 13:56:22;;;;;;;23.80;10.00;;;;;;;6.36;100.00;102527.18;214260;1290;138631;-83
2023/02/12 14:02:33;;;;;;;26.30;10.10;;;;;;;6.32;100.00;102529.98;214068;1288;138464;-83
2023/02/12 14:14:40;;;;;;;29.30;11.10;;;;;;;6.33;100.00;102532.77;214010;1288;138381;-82
2023/02/12 14:27:04;;;;;;;29.70;11.50;;;;;;;6.28;100.00;102536.80;213577;1291;138520;-84
2023/02/12 14:33:05;;;;;;;32.00;12.10;;;;;;;6.22;100.00;102544.09;214018;1289;138577;-84
2023/02/12 14:45:16;;;;;;;34.70;13.00;;;;;;;6.13;100.00;102546.35;214143;1290;139099;-83
2023/02/12 14:51:18;;;;;;;22.70;9.20;;;;;;;6.08;100.00;102546.00;214362;1288;138868;-84
2023/02/12 14:57:19;;;;;;;20.60;6.80;;;;;;;6.03;100.00;102551.55;214389;1290;139000;-84
2023/02/12 15:03:21;;;;;;;17.30;6.10;;;;;;;5.97;100.00;102555.08;214339;1290;138444;-84
2023/02/12 15:15:23;;;;;;;16.20;5.70;;;;;;;5.89;100.00;102551.20;214389;1289;138275;-84
